createdAt,value
2019-06-26T00:01:51.215Z,53.63
2019-06-26T00:04:17.881Z,57.95
2019-06-26T00:06:44.192Z,54.85
2019-06-26T00:09:11.162Z,54.58
2019-06-26T00:11:37.746Z,55.80
2019-06-26T00:14:04.389Z,50.75
2019-06-26T00:16:30.655Z,50.65
2019-06-26T00:18:57.268Z,49.38
2019-06-26T00:21:23.939Z,49.38
2019-06-26T00:23:50.259Z,53.55
2019-06-26T00:26:16.795Z,53.42
2019-06-26T00:28:43.514Z,52.98
2019-06-26T00:31:10.123Z,54.27
2019-06-26T00:33:36.779Z,54.75
2019-06-26T00:36:03.274Z,55.35
2019-06-26T00:38:29.580Z,55.50
2019-06-26T00:40:56.194Z,55.10
2019-06-26T00:43:22.878Z,54.35
2019-06-26T00:45:49.482Z,57.00
2019-06-26T00:48:16.105Z,54.65
2019-06-26T00:50:42.809Z,55.75
2019-06-26T00:53:09.376Z,56.60
2019-06-26T00:55:36.111Z,55.73
2019-06-26T00:58:02.924Z,58.55
2019-06-26T01:00:33.179Z,56.77
2019-06-26T01:02:59.634Z,56.28
2019-06-26T01:05:26.267Z,58.80
2019-06-26T01:07:52.938Z,54.83
2019-06-26T01:10:20.000Z,56.98
2019-06-26T01:12:46.269Z,59.38
2019-06-26T01:15:13.327Z,55.85
2019-06-26T01:17:40.024Z,54.67
2019-06-26T01:20:06.968Z,55.52
2019-06-26T01:22:33.656Z,53.63
2019-06-26T01:25:00.243Z,53.85
2019-06-26T01:27:26.933Z,54.25
2019-06-26T01:29:53.358Z,53.98
2019-06-26T01:32:20.936Z,52.17
2019-06-26T01:34:47.623Z,53.73
2019-06-26T01:37:14.224Z,55.65
2019-06-26T01:39:40.592Z,56.23
2019-06-26T01:42:06.952Z,51.58
2019-06-26T01:44:39.324Z,53.20
2019-06-26T01:47:05.813Z,54.00
2019-06-26T01:49:32.435Z,53.73
2019-06-26T01:51:59.053Z,51.53
2019-06-26T01:54:26.451Z,50.48
2019-06-26T01:56:53.159Z,48.42
2019-06-26T01:59:19.824Z,48.68
2019-06-26T02:01:46.077Z,48.00
2019-06-26T02:04:15.503Z,47.93
2019-06-26T02:06:40.429Z,47.00
2019-06-26T02:09:06.804Z,47.67
2019-06-26T02:11:33.155Z,45.92
2019-06-26T02:13:59.400Z,48.38
2019-06-26T02:16:25.649Z,50.45
2019-06-26T02:18:53.829Z,51.60
2019-06-26T02:21:20.068Z,53.90
2019-06-26T02:23:46.428Z,54.10
2019-06-26T02:26:12.659Z,55.88
2019-06-26T02:28:38.939Z,54.98
2019-06-26T02:31:05.312Z,56.15
2019-06-26T02:33:31.581Z,57.17
2019-06-26T02:35:57.828Z,59.58
2019-06-26T02:38:24.102Z,61.65
2019-06-26T02:40:50.362Z,56.70
2019-06-26T02:43:16.680Z,62.00
2019-06-26T02:45:42.959Z,60.17
2019-06-26T02:48:09.213Z,61.53
2019-06-26T02:50:35.589Z,59.20
2019-06-26T02:53:02.003Z,63.28
2019-06-26T02:55:28.304Z,59.23
2019-06-26T02:57:54.650Z,62.50
2019-06-26T03:00:21.008Z,62.38
2019-06-26T03:02:47.263Z,64.42
2019-06-26T03:05:13.721Z,60.65
2019-06-26T03:07:39.991Z,60.92
2019-06-26T03:10:07.560Z,60.73
2019-06-26T03:12:35.552Z,62.88
2019-06-26T03:15:08.671Z,61.37
2019-06-26T03:17:32.528Z,64.77
2019-06-26T03:19:59.186Z,60.98
2019-06-26T03:22:26.640Z,60.90
2019-06-26T03:24:53.319Z,58.33
2019-06-26T03:27:19.915Z,59.53
2019-06-26T03:29:46.859Z,58.80
2019-06-26T03:32:13.210Z,60.90
2019-06-26T03:34:39.824Z,61.50
2019-06-26T03:37:06.496Z,60.85
2019-06-26T03:39:33.095Z,58.73
2019-06-26T03:41:59.757Z,60.50
2019-06-26T03:44:26.362Z,62.73
2019-06-26T03:46:53.008Z,60.85
2019-06-26T03:49:19.672Z,59.10
2019-06-26T03:51:46.296Z,54.90
2019-06-26T03:54:12.955Z,60.23
2019-06-26T03:56:39.585Z,60.70
2019-06-26T03:59:06.235Z,60.50
2019-06-26T04:01:32.845Z,63.08
2019-06-26T04:03:59.204Z,62.62
2019-06-26T04:06:25.709Z,62.40
2019-06-26T04:08:52.455Z,64.22
2019-06-26T04:11:19.152Z,62.43
2019-06-26T04:13:45.371Z,58.63
2019-06-26T04:16:11.935Z,59.73
2019-06-26T04:18:38.494Z,59.77
2019-06-26T04:21:05.175Z,62.45
2019-06-26T04:23:31.770Z,61.30
2019-06-26T04:25:58.409Z,58.05
2019-06-26T04:28:25.079Z,61.25
2019-06-26T04:30:51.724Z,59.58
2019-06-26T04:33:18.362Z,60.40
2019-06-26T04:35:44.953Z,61.28
2019-06-26T04:38:11.645Z,55.78
2019-06-26T04:40:38.393Z,57.93
2019-06-26T04:43:04.866Z,56.70
2019-06-26T04:45:31.547Z,51.45
2019-06-26T04:47:58.153Z,49.98
2019-06-26T04:50:25.093Z,50.08
2019-06-26T04:52:51.619Z,50.25
2019-06-26T04:55:18.095Z,48.02
2019-06-26T04:57:44.835Z,48.10
2019-06-26T05:00:14.482Z,47.58
2019-06-26T05:05:08.237Z,46.00
2019-06-26T05:07:34.638Z,44.50
2019-06-26T05:10:01.181Z,44.10
2019-06-26T05:12:28.282Z,45.75
2019-06-26T05:14:54.622Z,46.63
2019-06-26T05:17:21.137Z,47.08
2019-06-26T05:19:47.803Z,46.65
2019-06-26T05:22:14.535Z,48.90
2019-06-26T05:24:41.151Z,46.55
2019-06-26T05:27:07.795Z,45.95
2019-06-26T05:29:34.288Z,44.40
2019-06-26T05:32:00.928Z,44.08
2019-06-26T05:34:27.731Z,44.33
2019-06-26T05:36:54.213Z,46.30
2019-06-26T05:39:20.916Z,45.30
2019-06-26T05:41:47.487Z,48.95
2019-06-26T05:44:13.721Z,47.50
2019-06-26T05:46:41.752Z,50.33
2019-06-26T05:49:08.568Z,48.63
2019-06-26T05:51:35.116Z,47.55
2019-06-26T05:54:01.759Z,51.28
2019-06-26T05:56:28.352Z,49.90
2019-06-26T05:58:54.814Z,47.75
2019-06-26T06:01:21.619Z,51.15
2019-06-26T06:03:51.756Z,49.08
2019-06-26T06:06:18.598Z,50.20
2019-06-26T06:08:45.547Z,45.58
2019-06-26T06:11:12.371Z,46.28
2019-06-26T06:13:39.050Z,49.55
2019-06-26T06:16:06.517Z,49.05
2019-06-26T06:18:34.262Z,48.33
2019-06-26T06:21:02.815Z,52.70
2019-06-26T06:23:29.348Z,51.37
2019-06-26T06:25:55.739Z,48.75
2019-06-26T06:28:23.965Z,48.78
2019-06-26T06:30:51.757Z,51.10
2019-06-26T06:33:18.220Z,51.40
2019-06-26T06:35:44.635Z,53.55
2019-06-26T06:38:10.978Z,50.92
2019-06-26T06:40:39.584Z,53.85
2019-06-26T06:43:07.236Z,55.48
2019-06-26T06:45:35.654Z,49.27
2019-06-26T06:48:02.161Z,50.50
2019-06-26T06:50:29.719Z,50.67
2019-06-26T06:52:57.629Z,53.55
2019-06-26T06:55:45.652Z,52.70
2019-06-26T06:58:11.994Z,54.03
2019-06-26T07:00:38.462Z,53.73
2019-06-26T07:03:04.801Z,55.00
2019-06-26T07:05:31.069Z,56.10
2019-06-26T07:07:58.884Z,55.80
2019-06-26T07:10:25.266Z,53.52
2019-06-26T07:12:51.561Z,54.00
2019-06-26T07:15:20.050Z,55.45
2019-06-26T07:17:46.283Z,54.27
2019-06-26T07:20:13.918Z,60.65
2019-06-26T07:22:42.083Z,57.60
2019-06-26T07:25:08.776Z,59.13
2019-06-26T07:27:38.716Z,56.95
2019-06-26T07:30:05.963Z,55.70
2019-06-26T07:32:32.222Z,57.00
2019-06-26T07:34:58.634Z,61.90
2019-06-26T07:37:26.246Z,59.42
2019-06-26T07:39:52.480Z,56.53
2019-06-26T07:42:18.866Z,58.68
2019-06-26T07:44:45.125Z,55.25
2019-06-26T07:47:22.317Z,52.70
2019-06-26T07:49:39.556Z,50.30
2019-06-26T07:52:05.787Z,51.30
2019-06-26T07:54:34.191Z,47.03
2019-06-26T07:57:02.307Z,47.53
2019-06-26T07:59:28.561Z,44.25
2019-06-26T08:01:54.835Z,44.85
2019-06-26T08:04:21.107Z,43.80
2019-06-26T08:06:47.361Z,41.60
2019-06-26T08:09:13.622Z,39.40
2019-06-26T08:11:39.928Z,44.48
2019-06-26T08:14:06.179Z,46.83
2019-06-26T08:16:34.449Z,44.95
2019-06-26T08:19:00.599Z,43.68
2019-06-26T08:21:26.959Z,49.00
2019-06-26T08:23:53.199Z,48.38
2019-06-26T08:26:21.364Z,50.63
2019-06-26T08:28:47.606Z,48.05
2019-06-26T08:31:15.559Z,46.30
2019-06-26T08:33:41.824Z,50.78
2019-06-26T08:36:08.091Z,57.08
2019-06-26T08:38:34.340Z,52.25
2019-06-26T08:41:00.588Z,52.70
2019-06-26T08:43:30.899Z,52.23
2019-06-26T08:45:55.112Z,50.58
2019-06-26T08:48:38.398Z,51.25
2019-06-26T08:50:49.559Z,51.48
2019-06-26T08:53:15.815Z,51.33
2019-06-26T08:55:42.070Z,54.55
2019-06-26T08:58:08.332Z,53.58
2019-06-26T09:00:36.601Z,55.58
2019-06-26T09:03:03.546Z,53.38
2019-06-26T09:05:43.572Z,52.40
2019-06-26T09:07:58.111Z,51.40
2019-06-26T09:10:24.502Z,53.45
2019-06-26T09:12:50.904Z,55.63
2019-06-26T09:15:17.246Z,49.30
2019-06-26T09:17:43.586Z,50.78
2019-06-26T09:20:10.555Z,49.88
2019-06-26T09:22:36.908Z,50.20
2019-06-26T09:25:20.236Z,50.63
2019-06-26T09:27:33.400Z,46.10
2019-06-26T09:29:59.684Z,51.63
2019-06-26T09:32:25.915Z,47.73
2019-06-26T09:34:52.195Z,47.78
2019-06-26T09:37:18.435Z,50.85
2019-06-26T09:39:44.774Z,47.65
2019-06-26T09:42:11.027Z,47.08
2019-06-26T09:44:37.281Z,49.08
2019-06-26T09:47:03.650Z,47.20
2019-06-26T09:49:29.927Z,44.90
2019-06-26T09:51:56.347Z,47.62
2019-06-26T09:54:22.614Z,45.45
2019-06-26T09:56:49.376Z,44.98
2019-06-26T09:59:15.624Z,45.92
2019-06-26T10:01:42.027Z,43.35
2019-06-26T10:04:10.120Z,45.03
2019-06-26T10:06:36.495Z,44.35
2019-06-26T10:09:06.264Z,43.42
2019-06-26T10:11:32.514Z,42.90
2019-06-26T10:13:58.807Z,40.38
2019-06-26T10:16:25.038Z,38.15
2019-06-26T10:19:05.545Z,38.23
2019-06-26T10:21:23.419Z,31.93
2019-06-26T10:23:47.653Z,31.42
2019-06-26T10:26:17.294Z,30.48
2019-06-26T10:28:45.875Z,27.93
2019-06-26T10:31:12.355Z,28.55
2019-06-26T10:33:40.300Z,26.17
2019-06-26T10:36:06.579Z,25.88
2019-06-26T10:38:32.856Z,25.12
2019-06-26T10:40:59.109Z,26.20
2019-06-26T10:43:25.378Z,25.00
2019-06-26T10:45:51.640Z,25.72
2019-06-26T10:48:17.910Z,27.13
2019-06-26T10:50:51.023Z,27.35
2019-06-26T10:53:12.211Z,26.42
2019-06-26T10:55:38.492Z,25.68
2019-06-26T10:58:05.078Z,24.20
2019-06-26T11:00:34.303Z,26.95
2019-06-26T11:05:29.400Z,24.80
2019-06-26T11:07:55.807Z,24.77
2019-06-26T11:10:22.272Z,24.30
2019-06-26T11:12:49.166Z,25.72
2019-06-26T11:15:15.920Z,23.45
2019-06-26T11:17:42.292Z,24.37
2019-06-26T11:20:09.327Z,21.70
2019-06-26T11:22:35.656Z,25.20
2019-06-26T11:25:02.273Z,27.25
2019-06-26T11:27:28.680Z,26.00
2019-06-26T11:29:54.974Z,24.23
2019-06-26T11:32:22.879Z,26.87
2019-06-26T11:34:49.143Z,24.77
2019-06-26T11:37:15.371Z,25.45
2019-06-26T11:39:41.633Z,25.85
2019-06-26T11:42:08.165Z,26.05
2019-06-26T11:44:34.424Z,24.92
2019-06-26T11:47:00.678Z,27.37
2019-06-26T11:49:26.938Z,25.48
2019-06-26T11:51:53.175Z,24.77
2019-06-26T11:54:19.447Z,22.58
2019-06-26T11:56:45.701Z,25.02
2019-06-26T11:59:11.984Z,23.83
2019-06-26T12:01:38.210Z,23.57
2019-06-26T12:04:04.494Z,24.77
2019-06-26T12:06:30.728Z,23.27
2019-06-26T12:08:57.012Z,25.27
2019-06-26T12:11:23.264Z,24.25
2019-06-26T12:13:49.898Z,24.32
2019-06-26T12:16:16.151Z,25.92
2019-06-26T12:18:42.382Z,24.70
2019-06-26T12:21:08.650Z,26.90
2019-06-26T12:23:34.898Z,25.12
2019-06-26T12:26:01.176Z,24.60
2019-06-26T12:28:27.403Z,25.37
2019-06-26T12:30:53.653Z,24.57
2019-06-26T12:33:19.919Z,23.67
2019-06-26T12:35:46.244Z,24.77
2019-06-26T12:38:15.827Z,23.92
2019-06-26T12:40:42.088Z,23.55
2019-06-26T12:43:08.349Z,21.65
2019-06-26T12:45:34.666Z,22.48
2019-06-26T12:48:01.318Z,22.77
2019-06-26T12:50:35.165Z,22.58
2019-06-26T12:52:55.824Z,21.75
2019-06-26T12:55:22.051Z,22.15
2019-06-26T12:57:48.315Z,20.77
2019-06-26T13:00:14.980Z,20.77
2019-06-26T13:02:41.477Z,21.30
2019-06-26T13:05:09.500Z,20.57
2019-06-26T13:07:35.740Z,20.30
2019-06-26T13:10:07.352Z,19.48
2019-06-26T13:12:32.863Z,20.68
2019-06-26T13:14:59.172Z,19.73
2019-06-26T13:17:25.523Z,20.25
2019-06-26T13:19:57.879Z,18.92
2019-06-26T13:22:24.231Z,19.23
2019-06-26T13:24:50.581Z,18.25
2019-06-26T13:27:16.845Z,16.85
2019-06-26T13:29:43.207Z,19.42
2019-06-26T13:32:09.505Z,18.20
2019-06-26T13:34:35.848Z,16.62
2019-06-26T13:37:05.249Z,14.90
2019-06-26T13:39:31.451Z,16.23
2019-06-26T13:41:57.721Z,15.98
2019-06-26T13:44:24.066Z,16.23
2019-06-26T13:46:50.402Z,15.85
2019-06-26T13:49:16.797Z,17.32
2019-06-26T13:51:43.023Z,17.27
2019-06-26T13:54:09.256Z,16.77
2019-06-26T13:56:35.587Z,17.77
2019-06-26T13:59:01.828Z,19.65
2019-06-26T14:01:28.128Z,19.40
2019-06-26T14:03:54.467Z,19.95
2019-06-26T14:06:22.758Z,18.98
2019-06-26T14:08:49.032Z,17.60
2019-06-26T14:11:15.353Z,19.10
2019-06-26T14:13:42.117Z,18.12
2019-06-26T14:16:08.799Z,17.30
2019-06-26T14:18:35.087Z,16.70
2019-06-26T14:21:01.438Z,16.10
2019-06-26T14:23:30.483Z,17.10
2019-06-26T14:25:56.831Z,20.25
2019-06-26T14:28:23.095Z,18.90
2019-06-26T14:30:49.319Z,17.65
2019-06-26T14:33:15.618Z,16.20
2019-06-26T14:35:41.870Z,18.02
2019-06-26T14:38:08.247Z,16.80
2019-06-26T14:40:34.590Z,20.57
2019-06-26T14:43:01.629Z,19.80
2019-06-26T14:45:27.871Z,20.77
2019-06-26T14:47:55.364Z,21.30
2019-06-26T14:50:21.827Z,21.27
2019-06-26T14:52:48.117Z,20.12
2019-06-26T14:55:14.575Z,19.20
2019-06-26T14:57:40.867Z,21.15
2019-06-26T15:00:08.349Z,20.75
2019-06-26T15:02:34.857Z,19.30
2019-06-26T15:05:01.104Z,20.77
2019-06-26T15:07:29.207Z,20.88
2019-06-26T15:09:56.175Z,20.57
2019-06-26T15:12:23.222Z,20.68
2019-06-26T15:14:49.494Z,19.35
2019-06-26T15:17:15.812Z,19.65
2019-06-26T15:19:42.228Z,21.02
2019-06-26T15:22:08.908Z,20.60
2019-06-26T15:24:35.156Z,21.00
2019-06-26T15:27:01.430Z,21.40
2019-06-26T15:29:27.694Z,21.48
2019-06-26T15:31:54.059Z,23.02
2019-06-26T15:34:20.359Z,23.05
2019-06-26T15:36:48.521Z,20.70
2019-06-26T15:39:15.016Z,22.77
2019-06-26T15:41:42.044Z,22.22
2019-06-26T15:44:08.509Z,22.37
2019-06-26T15:46:34.805Z,23.30
2019-06-26T15:49:01.096Z,23.70
2019-06-26T15:51:27.459Z,21.68
2019-06-26T15:53:53.732Z,19.82
2019-06-26T15:56:20.033Z,23.32
2019-06-26T15:58:46.275Z,24.12
2019-06-26T16:01:12.564Z,21.95
2019-06-26T16:03:39.007Z,22.42
2019-06-26T16:06:05.392Z,24.12
2019-06-26T16:08:31.742Z,21.20
2019-06-26T16:10:58.221Z,23.35
2019-06-26T16:13:24.557Z,22.85
2019-06-26T16:15:51.008Z,22.07
2019-06-26T16:18:25.268Z,21.60
2019-06-26T16:20:51.602Z,20.70
2019-06-26T16:23:19.571Z,19.40
2019-06-26T16:25:46.036Z,19.48
2019-06-26T16:28:12.292Z,18.73
2019-06-26T16:30:38.652Z,19.62
2019-06-26T16:33:04.910Z,19.92
2019-06-26T16:35:31.179Z,19.07
2019-06-26T16:37:58.752Z,19.12
2019-06-26T16:40:25.048Z,19.30
2019-06-26T16:42:51.399Z,21.48
2019-06-26T16:45:18.445Z,19.67
2019-06-26T16:47:44.823Z,20.57
2019-06-26T16:50:11.398Z,21.35
2019-06-26T16:52:48.595Z,20.57
2019-06-26T16:55:06.587Z,19.02
2019-06-26T16:57:32.868Z,19.25
2019-06-26T17:00:08.919Z,20.27
2019-06-26T17:02:27.192Z,19.73
2019-06-26T17:04:53.461Z,21.17
2019-06-26T17:07:19.834Z,22.02
2019-06-26T17:09:46.394Z,21.55
2019-06-26T17:12:13.040Z,20.72
2019-06-26T17:14:39.376Z,19.60
2019-06-26T17:17:06.026Z,20.70
2019-06-26T17:19:32.461Z,20.50
2019-06-26T17:21:58.695Z,20.95
2019-06-26T17:24:28.811Z,20.62
2019-06-26T17:26:55.167Z,20.23
2019-06-26T17:29:21.600Z,19.30
2019-06-26T17:31:49.776Z,19.65
2019-06-26T17:34:16.495Z,18.45
2019-06-26T17:36:42.963Z,21.70
2019-06-26T17:39:09.431Z,20.17
2019-06-26T17:41:37.752Z,22.02
2019-06-26T17:44:04.227Z,22.85
2019-06-26T17:46:30.612Z,21.35
2019-06-26T17:48:56.972Z,22.15
2019-06-26T17:51:23.463Z,21.97
2019-06-26T17:53:49.871Z,21.57
2019-06-26T17:56:16.247Z,25.27
2019-06-26T17:58:42.492Z,24.80
2019-06-26T18:01:08.803Z,24.23
2019-06-26T18:03:35.169Z,23.40
2019-06-26T18:06:01.783Z,23.52
2019-06-26T18:08:31.867Z,22.50
2019-06-26T18:10:58.244Z,22.22
2019-06-26T18:13:28.292Z,21.52
2019-06-26T18:15:54.602Z,19.57
2019-06-26T18:18:21.242Z,19.67
2019-06-26T18:20:48.158Z,19.32
2019-06-26T18:23:16.459Z,13.83
2019-06-26T18:25:43.344Z,10.15
2019-06-26T18:28:11.568Z,8.00
2019-06-26T18:30:38.384Z,7.42
2019-06-26T18:33:05.011Z,6.95
2019-06-26T18:35:31.636Z,7.53
2019-06-26T18:37:59.306Z,7.12
2019-06-26T18:40:26.073Z,7.37
2019-06-26T18:42:54.567Z,7.67
2019-06-26T18:45:21.538Z,8.03
2019-06-26T18:47:50.077Z,8.58
2019-06-26T18:50:18.771Z,7.17
2019-06-26T18:52:46.381Z,5.87
2019-06-26T18:55:13.131Z,7.15
2019-06-26T18:57:39.719Z,8.63
2019-06-26T19:00:07.307Z,6.78
2019-06-26T19:02:33.763Z,6.03
2019-06-26T19:05:00.387Z,6.33
2019-06-26T19:07:27.086Z,6.80
2019-06-26T19:09:53.344Z,6.30
2019-06-26T19:12:19.748Z,6.83
2019-06-26T19:14:48.389Z,7.45
2019-06-26T19:17:17.207Z,6.00
2019-06-26T19:19:43.517Z,6.33
2019-06-26T19:22:11.460Z,5.83
2019-06-26T19:24:37.987Z,8.15
2019-06-26T19:27:07.572Z,9.50
2019-06-26T19:29:32.712Z,9.15
2019-06-26T19:31:59.259Z,9.58
2019-06-26T19:34:25.683Z,10.48
2019-06-26T19:36:52.103Z,9.35
2019-06-26T19:39:21.190Z,8.73
2019-06-26T19:41:48.036Z,10.10
2019-06-26T19:44:15.104Z,9.65
2019-06-26T19:46:42.956Z,9.00
2019-06-26T19:49:09.533Z,9.08
2019-06-26T19:51:36.213Z,8.75
2019-06-26T19:54:03.120Z,8.60
2019-06-26T19:56:30.270Z,8.75
2019-06-26T19:58:57.219Z,8.15
2019-06-26T20:01:24.625Z,9.90
2019-06-26T20:03:51.335Z,9.43
2019-06-26T20:06:18.160Z,8.60
2019-06-26T20:08:53.419Z,9.33
2019-06-26T20:11:13.687Z,9.40
2019-06-26T20:13:41.999Z,9.90
2019-06-26T20:16:08.636Z,8.85
2019-06-26T20:18:35.265Z,8.13
2019-06-26T20:21:01.775Z,6.17
2019-06-26T20:23:30.018Z,5.95
2019-06-26T20:25:56.408Z,6.53
2019-06-26T20:28:25.011Z,4.70
2019-06-26T20:30:51.463Z,3.77
2019-06-26T20:33:19.841Z,3.87
2019-06-26T20:35:46.530Z,4.00
2019-06-26T20:38:16.692Z,3.40
2019-06-26T20:40:46.147Z,3.27
2019-06-26T20:43:12.995Z,3.12
2019-06-26T20:45:39.231Z,2.95
2019-06-26T20:48:07.080Z,2.80
2019-06-26T20:50:33.705Z,3.05
2019-06-26T20:53:00.036Z,3.25
2019-06-26T20:55:26.612Z,2.65
2019-06-26T20:57:53.233Z,2.42
2019-06-26T21:00:22.497Z,1.98
2019-06-26T21:02:47.832Z,2.00
2019-06-26T21:05:14.549Z,2.02
2019-06-26T21:07:41.161Z,1.92
2019-06-26T21:10:08.683Z,1.80
2019-06-26T21:12:38.474Z,1.62
2019-06-26T21:15:07.184Z,1.40
2019-06-26T21:17:35.937Z,1.60
2019-06-26T21:20:05.511Z,1.60
2019-06-26T21:24:58.343Z,1.50
2019-06-26T21:27:24.881Z,1.32
2019-06-26T21:29:51.340Z,1.85
2019-06-26T21:32:17.718Z,1.70
2019-06-26T21:34:45.703Z,1.50
2019-06-26T21:37:12.134Z,1.27
2019-06-26T21:39:40.156Z,1.35
2019-06-26T21:42:06.622Z,1.40
2019-06-26T21:44:33.000Z,1.72
2019-06-26T21:46:59.286Z,1.37
2019-06-26T21:49:25.492Z,1.45
2019-06-26T21:51:51.865Z,1.40
2019-06-26T21:54:18.083Z,1.75
2019-06-26T21:56:44.380Z,1.67
2019-06-26T21:59:10.712Z,1.50
2019-06-26T22:01:37.088Z,1.50
2019-06-26T22:04:05.657Z,1.92
2019-06-26T22:06:31.998Z,1.85
2019-06-26T22:08:58.287Z,3.15
2019-06-26T22:11:24.625Z,1.87
2019-06-26T22:13:50.951Z,2.12
2019-06-26T22:16:17.241Z,2.20
2019-06-26T22:18:43.581Z,1.70
2019-06-26T22:21:09.847Z,2.22
2019-06-26T22:23:36.092Z,3.33
2019-06-26T22:26:03.568Z,2.92
2019-06-26T22:28:29.858Z,2.77
2019-06-26T22:30:56.128Z,3.05
2019-06-26T22:33:22.449Z,2.95
2019-06-26T22:35:49.035Z,2.75
2019-06-26T22:38:15.271Z,2.02
2019-06-26T22:40:41.511Z,2.42
2019-06-26T22:43:07.807Z,2.90
2019-06-26T22:45:34.065Z,2.22
2019-06-26T22:48:00.333Z,2.58
2019-06-26T22:50:26.555Z,2.77
2019-06-26T22:52:52.823Z,3.12
2019-06-26T22:55:19.131Z,2.40
2019-06-26T22:57:45.429Z,2.35
2019-06-26T23:00:15.100Z,3.17
2019-06-26T23:05:08.153Z,3.83
2019-06-26T23:07:34.575Z,3.42
2019-06-26T23:10:01.154Z,3.65
2019-06-26T23:12:27.753Z,3.00
2019-06-26T23:14:54.412Z,2.55
2019-06-26T23:17:21.078Z,4.83
2019-06-26T23:19:47.695Z,4.67
2019-06-26T23:22:14.308Z,3.05
2019-06-26T23:24:41.492Z,3.45
2019-06-26T23:27:08.105Z,3.27
2019-06-26T23:29:34.423Z,3.27
2019-06-26T23:32:03.415Z,3.08
2019-06-26T23:34:29.973Z,3.27
2019-06-26T23:36:56.642Z,3.35
2019-06-26T23:39:23.227Z,3.37
2019-06-26T23:41:49.484Z,4.12
2019-06-26T23:44:15.823Z,3.33
2019-06-26T23:46:42.353Z,3.92
2019-06-26T23:49:08.988Z,4.95
2019-06-26T23:51:35.601Z,2.98
2019-06-26T23:54:02.369Z,3.85
2019-06-26T23:56:39.850Z,3.08
2019-06-26T23:58:57.184Z,3.27
